Time,TemperatureF,DewpointF,PressureIn,WindDirection,WindDirectionDegrees,WindSpeedMPH,WindSpeedGustMPH,Humidity,HourlyPrecipIn,Conditions,Clouds,dailyrainin,SolarRadiationWatts/m^2,SoftwareType,DateUTC
2013-02-10 01:00:00,23.0,20.0,30.02,NW,317,13.0,-999.0,87,-99.99,,,-99.99,0.020000,,2013-02-10 08:00:00,
2013-02-10 01:52:00,23.0,20.0,30.02,NW,317,13.0,-999.0,87,-99.99,,,-99.99,0.020000,,2013-02-10 08:52:00,
2013-02-10 02:00:00,24.0,20.0,30.01,NW,305,9.0,-999.0,85,-99.99,,,-99.99,0.010000,,2013-02-10 09:00:00,
2013-02-10 02:52:00,24.0,20.0,30.01,NW,305,9.0,-999.0,85,-99.99,,,-99.99,0.010000,,2013-02-10 09:52:00,
2013-02-10 03:00:00,22.0,21.0,30.02,NNW,328,18.0,-999.0,93,-99.99,,,-99.99,0.010000,,2013-02-10 10:00:00,
2013-02-10 03:52:00,22.0,21.0,30.02,NNW,328,18.0,-999.0,93,-99.99,,,-99.99,0.010000,,2013-02-10 10:52:00,
2013-02-10 04:00:00,22.0,21.0,30.03,NNW,334,16.0,-999.0,94,-99.99,,,-99.99,0.000000,,2013-02-10 11:00:00,
2013-02-10 04:52:00,22.0,21.0,30.03,NNW,334,16.0,-999.0,94,-99.99,,,-99.99,0.000000,,2013-02-10 11:52:00,
2013-02-10 05:00:00,21.0,19.0,30.05,NNW,328,17.0,-999.0,92,-99.99,,,-99.99,0.000000,,2013-02-10 12:00:00,
2013-02-10 05:52:00,21.0,19.0,30.05,NNW,328,17.0,-999.0,92,-99.99,,,-99.99,0.000000,,2013-02-10 12:52:00,
2013-02-10 06:00:00,18.0,16.0,30.06,NNW,338,16.0,-999.0,95,-99.99,,,-99.99,0.000000,,2013-02-10 13:00:00,
2013-02-10 06:52:00,18.0,16.0,30.06,NNW,338,16.0,-999.0,95,-99.99,,,-99.99,0.000000,,2013-02-10 13:52:00,
2013-02-10 07:00:00,18.0,17.0,30.06,NNW,344,16.0,-999.0,95,-99.99,,,-99.99,0.000000,,2013-02-10 14:00:00,
2013-02-10 07:52:00,18.0,17.0,30.06,NNW,344,16.0,-999.0,95,-99.99,,,-99.99,0.000000,,2013-02-10 14:52:00,
2013-02-10 08:00:00,17.0,16.0,30.08,NNW,338,17.0,-999.0,95,-99.99,,,-99.99,3.380000,,2013-02-10 15:00:00,
2013-02-10 08:52:00,17.0,16.0,30.08,NNW,338,17.0,-999.0,95,-99.99,,,-99.99,3.380000,,2013-02-10 15:52:00,
2013-02-10 09:00:00,17.0,16.0,30.09,NNW,333,12.0,-999.0,96,-99.99,,,-99.99,43.630001,,2013-02-10 16:00:00,
2013-02-10 09:52:00,17.0,16.0,30.09,NNW,333,12.0,-999.0,96,-99.99,,,-99.99,43.630001,,2013-02-10 16:52:00,
2013-02-10 10:00:00,19.0,17.0,30.09,NW,322,14.0,-999.0,94,-99.99,,,-99.99,131.300003,,2013-02-10 17:00:00,
2013-02-10 10:52:00,19.0,17.0,30.09,NW,322,14.0,-999.0,94,-99.99,,,-99.99,131.300003,,2013-02-10 17:52:00,
2013-02-10 11:00:00,19.0,15.0,30.10,NW,321,16.0,-999.0,85,-99.99,,,-99.99,231.800003,,2013-02-10 18:00:00,
2013-02-10 11:52:00,19.0,15.0,30.10,NW,321,16.0,-999.0,85,-99.99,,,-99.99,231.800003,,2013-02-10 18:52:00,
2013-02-10 12:00:00,19.0,16.0,30.09,NW,307,21.0,-999.0,86,-99.99,,,-99.99,401.600006,,2013-02-10 19:00:00,
2013-02-10 12:52:00,19.0,16.0,30.09,NW,307,21.0,-999.0,86,-99.99,,,-99.99,401.600006,,2013-02-10 19:52:00,
2013-02-10 13:00:00,19.0,15.0,30.08,WNW,300,27.0,-999.0,85,-99.99,,,-99.99,412.799988,,2013-02-10 20:00:00,
2013-02-10 13:52:00,19.0,15.0,30.08,WNW,300,27.0,-999.0,85,-99.99,,,-99.99,412.799988,,2013-02-10 20:52:00,
2013-02-10 14:00:00,19.0,15.0,30.09,WNW,300,25.0,-999.0,82,-99.99,,,-99.99,326.799988,,2013-02-10 21:00:00,
2013-02-10 14:52:00,19.0,15.0,30.09,WNW,300,25.0,-999.0,82,-99.99,,,-99.99,326.799988,,2013-02-10 21:52:00,
2013-02-10 15:00:00,21.0,16.0,30.10,WNW,301,22.0,-999.0,79,-99.99,,,-99.99,456.500000,,2013-02-10 22:00:00,
2013-02-10 15:52:00,21.0,16.0,30.10,WNW,301,22.0,-999.0,79,-99.99,,,-99.99,456.500000,,2013-02-10 22:52:00,
2013-02-10 16:00:00,21.0,13.0,30.12,WNW,301,18.0,-999.0,71,-99.99,,,-99.99,254.800003,,2013-02-10 23:00:00,
2013-02-10 16:52:00,21.0,13.0,30.12,WNW,301,18.0,-999.0,71,-99.99,,,-99.99,254.800003,,2013-02-10 23:52:00,
2013-02-10 17:00:00,19.0,13.0,30.11,WNW,298,15.0,-999.0,79,-99.99,,,-99.99,151.399994,,2013-02-11 00:00:00,
2013-02-10 17:52:00,19.0,13.0,30.11,WNW,298,15.0,-999.0,79,-99.99,,,-99.99,151.399994,,2013-02-11 00:52:00,
2013-02-10 18:00:00,15.0,10.0,30.11,NW,305,12.0,-999.0,80,-99.99,,,-99.99,13.750000,,2013-02-11 01:00:00,
2013-02-10 18:52:00,15.0,10.0,30.11,NW,305,12.0,-999.0,80,-99.99,,,-99.99,13.750000,,2013-02-11 01:52:00,
2013-02-10 19:00:00,11.0,8.0,30.11,NW,326,7.0,-999.0,87,-99.99,,,-99.99,0.000000,,2013-02-11 02:00:00,
2013-02-10 19:52:00,11.0,8.0,30.11,NW,326,7.0,-999.0,87,-99.99,,,-99.99,0.000000,,2013-02-11 02:52:00,
2013-02-10 20:00:00,10.0,9.0,30.11,NE,41,4.0,-999.0,94,-99.99,,,-99.99,0.000000,,2013-02-11 03:00:00,
2013-02-10 20:52:00,10.0,9.0,30.11,NE,41,4.0,-999.0,94,-99.99,,,-99.99,0.000000,,2013-02-11 03:52:00,
2013-02-10 21:00:00,7.0,6.0,30.11,South,181,2.0,-999.0,93,-99.99,,,-99.99,0.000000,,2013-02-11 04:00:00,
2013-02-10 21:52:00,7.0,6.0,30.11,South,181,2.0,-999.0,93,-99.99,,,-99.99,0.000000,,2013-02-11 04:52:00,
2013-02-10 22:00:00,4.0,2.0,30.10,SW,220,5.0,-999.0,91,-99.99,,,-99.99,0.000000,,2013-02-11 05:00:00,
2013-02-10 22:52:00,4.0,2.0,30.10,SW,220,5.0,-999.0,91,-99.99,,,-99.99,0.000000,,2013-02-11 05:52:00,
2013-02-10 23:00:00,7.0,1.0,30.08,SSW,213,6.0,-999.0,77,-99.99,,,-99.99,0.000000,,2013-02-11 06:00:00,
2013-02-10 23:52:00,7.0,1.0,30.08,SSW,213,6.0,-999.0,77,-99.99,,,-99.99,0.000000,,2013-02-11 06:52:00,